Time;durP1;ratioP1;P1;durP2;ratioP2;P2;SDS_P1;SDS_P2;PMS_P1;PMS_P2;Temp;Humidity;BMP_temperature;BMP_pressure;BME280_temperature;BME280_humidity;BME280_pressure;Samples;Min_cycle;Max_cycle;Signal;HPM_P1;HPM_P2
2023/03/06 00:01:18;;;;;;;0.87;0.50;;;;;;;16.84;45.57;100338.75;20563991;28;20051;-96
2023/03/06 00:11:20;;;;;;;0.63;0.50;;;;;;;17.04;45.67;100352.19;20537750;28;20051;-95
2023/03/06 00:21:21;;;;;;;1.55;0.45;;;;;;;17.03;45.57;100347.78;20577939;28;20054;-95
2023/03/06 00:31:23;;;;;;;0.80;0.45;;;;;;;17.02;45.57;100343.41;20620740;28;20058;-95
2023/03/06 00:41:25;;;;;;;1.08;0.50;;;;;;;17.02;45.50;100325.44;20651566;28;20051;-96
2023/03/06 00:51:27;;;;;;;1.23;0.60;;;;;;;17.01;45.69;100320.19;20652519;28;20070;-93
2023/03/06 01:01:29;;;;;;;1.30;0.73;;;;;;;16.91;45.16;100296.84;20638320;28;20059;-95
2023/03/06 01:11:30;;;;;;;1.35;0.60;;;;;;;17.01;45.72;100296.81;20552981;28;20062;-93
2023/03/06 01:21:32;;;;;;;1.38;0.60;;;;;;;16.92;45.50;100268.97;20584758;28;20079;-87
2023/03/06 01:31:34;;;;;;;1.33;0.65;;;;;;;16.56;45.60;100219.50;20719386;23;20062;-94
2023/03/06 01:41:36;;;;;;;1.00;0.47;;;;;;;14.49;45.55;99854.69;20445659;28;20055;-94
2023/03/06 01:51:41;;;;;;;0.95;0.43;;;;;;;14.21;45.34;99833.09;20422935;29;20070;-93
2023/03/06 02:01:43;;;;;;;0.73;0.40;;;;;;;14.91;45.54;99964.31;20436787;29;20044;-93
2023/03/06 02:11:45;;;;;;;0.77;0.45;;;;;;;14.82;45.36;99922.28;20416038;29;20052;-91
2023/03/06 02:21:47;;;;;;;1.58;0.45;;;;;;;17.00;45.47;100235.13;20425550;29;20051;-93
2023/03/06 02:31:50;;;;;;;1.15;0.47;;;;;;;14.13;45.63;99734.75;20407086;28;20050;-93
2023/03/06 02:41:52;;;;;;;0.40;0.40;;;;;;;15.38;45.41;100008.34;20419184;28;20139;-93
2023/03/06 02:51:55;;;;;;;1.35;0.50;;;;;;;14.81;45.42;99912.56;20410485;28;20047;-94
2023/03/06 03:01:56;;;;;;;0.60;0.50;;;;;;;13.43;45.41;99647.38;20430152;28;20051;-95
2023/03/06 03:11:58;;;;;;;1.17;0.50;;;;;;;14.56;45.51;99836.22;20478265;28;20122;-89
2023/03/06 03:22:00;;;;;;;0.93;0.40;;;;;;;14.48;45.56;99775.31;20429320;29;20052;-94
2023/03/06 03:32:04;;;;;;;0.65;0.30;;;;;;;15.76;45.44;99995.06;20436256;28;20060;-94
2023/03/06 03:42:06;;;;;;;1.75;0.50;;;;;;;14.57;45.68;99832.56;20426135;29;20062;-94
2023/03/06 03:52:12;;;;;;;0.30;0.30;;;;;;;14.45;45.62;99770.25;20409707;29;20051;-94
2023/03/06 04:02:15;;;;;;;0.22;0.20;;;;;;;14.31;45.80;99801.84;20451164;29;20583;-94
2023/03/06 04:12:28;;;;;;;0.65;0.40;;;;;;;14.04;45.66;99709.66;20414564;29;20052;-94
2023/03/06 04:22:31;;;;;;;0.60;0.30;;;;;;;15.14;45.54;99880.94;20401747;29;20107;-96
2023/03/06 04:32:34;;;;;;;0.55;0.35;;;;;;;13.24;45.63;99642.81;20415872;29;20062;-95
2023/03/06 04:42:36;;;;;;;0.28;0.22;;;;;;;14.67;45.47;99833.41;20384697;29;20056;-94
2023/03/06 04:52:39;;;;;;;0.55;0.38;;;;;;;13.49;45.58;99646.81;20405740;29;20083;-94
2023/03/06 05:02:42;;;;;;;0.20;0.20;;;;;;;14.24;45.52;99763.22;20419303;29;20124;-93
2023/03/06 05:12:43;;;;;;;0.25;0.20;;;;;;;14.64;45.75;99850.63;20418162;29;20164;-94
2023/03/06 05:22:45;;;;;;;0.20;0.20;;;;;;;16.83;45.44;100132.72;20424406;28;20055;-94
2023/03/06 05:32:47;;;;;;;0.30;0.20;;;;;;;17.07;45.96;100139.44;20429618;28;20141;-91
2023/03/06 05:42:48;;;;;;;0.25;0.25;;;;;;;17.23;45.69;100142.34;20397504;28;20051;-90
2023/03/06 05:52:50;;;;;;;0.10;0.10;;;;;;;17.28;45.19;100130.28;20398202;29;20501;-90
2023/03/06 06:02:51;;;;;;;3.38;0.40;;;;;;;17.45;46.59;100136.66;20398688;28;20058;-88
2023/03/06 06:12:53;;;;;;;0.52;0.20;;;;;;;17.58;48.18;100161.38;20355798;29;20063;-91
2023/03/06 06:22:55;;;;;;;0.55;0.22;;;;;;;17.63;47.56;100152.81;20453766;28;20048;-91
2023/03/06 06:32:56;;;;;;;1.05;0.30;;;;;;;17.63;46.52;100147.44;20412834;28;20059;-90
2023/03/06 06:43:00;;;;;;;0.15;0.15;;;;;;;17.62;45.79;100137.66;20389554;29;20043;-89
2023/03/06 06:53:02;;;;;;;0.28;0.20;;;;;;;17.64;45.09;100138.34;20375064;29;20079;-90
2023/03/06 07:03:03;;;;;;;0.15;0.15;;;;;;;17.66;44.80;100155.19;20369614;28;20143;-91
2023/03/06 07:13:05;;;;;;;0.20;0.20;;;;;;;17.67;44.39;100148.81;20380502;29;20115;-90
2023/03/06 07:23:11;;;;;;;0.10;0.10;;;;;;;17.73;44.79;100159.00;20410427;28;20083;-92
2023/03/06 07:33:13;;;;;;;0.20;0.20;;;;;;;17.80;45.40;100151.13;20408556;28;20470;-91
2023/03/06 07:43:14;;;;;;;0.10;0.10;;;;;;;17.87;45.68;100162.13;20384787;29;20047;-89
2023/03/06 07:53:29;;;;;;;0.10;0.10;;;;;;;17.92;46.05;100159.84;20394867;28;20070;-91
2023/03/06 08:03:31;;;;;;;0.20;0.20;;;;;;;17.76;46.10;100145.22;20399691;28;20056;-94
2023/03/06 08:13:33;;;;;;;0.10;0.10;;;;;;;17.94;46.06;100168.59;20405012;28;20064;-92
2023/03/06 08:23:35;;;;;;;0.17;0.17;;;;;;;17.92;46.13;100175.97;20402592;28;20043;-93
2023/03/06 08:33:37;;;;;;;0.20;0.10;;;;;;;18.12;46.27;100200.94;20429900;28;20067;-94
2023/03/06 08:43:39;;;;;;;0.10;0.10;;;;;;;18.16;46.30;100204.19;20366377;28;20114;-91
2023/03/06 08:53:40;;;;;;;0.20;0.20;;;;;;;18.17;46.24;100189.72;20376617;28;20059;-91
2023/03/06 09:03:44;;;;;;;0.32;0.20;;;;;;;18.08;46.36;100186.09;20390640;29;20052;-89
2023/03/06 09:13:46;;;;;;;0.20;0.20;;;;;;;17.99;46.34;100166.28;20373993;29;20469;-91
2023/03/06 09:23:48;;;;;;;0.20;0.20;;;;;;;18.16;46.03;100194.25;20385681;28;20079;-94
2023/03/06 09:33:49;;;;;;;0.20;0.20;;;;;;;18.15;46.19;100179.09;20352005;28;20062;-93
2023/03/06 09:44:17;;;;;;;0.32;0.20;;;;;;;18.02;46.22;100154.41;20366071;28;20191;-88
2023/03/06 09:54:25;;;;;;;0.10;0.10;;;;;;;18.11;46.02;100162.38;20357848;28;20418;-90
2023/03/06 10:04:31;;;;;;;0.57;0.35;;;;;;;17.93;46.07;100119.28;20356419;29;20064;-91
2023/03/06 10:14:43;;;;;;;0.98;0.20;;;;;;;18.07;46.08;100131.38;20348466;29;20575;-91
2023/03/06 10:25:03;;;;;;;0.47;0.20;;;;;;;17.99;46.16;100131.28;20344136;28;20071;-89
2023/03/06 10:35:14;;;;;;;0.60;0.30;;;;;;;18.09;45.88;100140.13;20348462;29;20543;-87
2023/03/06 10:45:16;;;;;;;0.45;0.20;;;;;;;18.17;45.87;100150.13;20336204;29;20055;-83
2023/03/06 10:55:24;;;;;;;0.15;0.15;;;;;;;18.26;45.75;100172.59;20342190;28;20108;-85
2023/03/06 11:05:26;;;;;;;0.10;0.10;;;;;;;18.26;45.61;100151.06;20365032;29;20059;-85
2023/03/06 11:15:30;;;;;;;0.63;0.20;;;;;;;18.33;45.34;100138.63;20359063;28;20047;-85
2023/03/06 11:25:52;;;;;;;0.88;0.30;;;;;;;18.44;44.83;100148.31;20351362;29;20508;-85
2023/03/06 11:36:04;;;;;;;0.60;0.20;;;;;;;18.23;44.60;100108.25;20364912;28;20066;-85
2023/03/06 11:46:30;;;;;;;0.93;0.25;;;;;;;18.50;44.06;100136.03;20368094;28;20047;-86
2023/03/06 11:56:43;;;;;;;0.38;0.20;;;;;;;18.51;44.21;100127.81;20356929;28;20092;-84
2023/03/06 12:07:03;;;;;;;0.35;0.10;;;;;;;18.53;43.84;100119.53;20363894;28;20049;-91
2023/03/06 12:17:25;;;;;;;1.55;0.20;;;;;;;18.50;43.68;100109.09;20380969;28;20047;-89
2023/03/06 12:27:48;;;;;;;0.77;0.30;;;;;;;18.48;44.16;100094.94;20381709;28;20083;-88
2023/03/06 12:38:19;;;;;;;1.15;0.52;;;;;;;18.43;44.41;100086.47;20375120;28;20058;-90
2023/03/06 12:48:25;;;;;;;0.50;0.30;;;;;;;18.39;44.46;100083.28;20287655;28;20162;-89
2023/03/06 12:58:28;;;;;;;0.90;0.20;;;;;;;18.36;44.49;100070.94;20373940;28;20058;-90
2023/03/06 13:08:57;;;;;;;0.88;0.30;;;;;;;18.08;44.36;100046.88;20383595;28;20146;-91
2023/03/06 13:19:17;;;;;;;0.10;0.10;;;;;;;18.33;44.36;100057.81;20375467;28;20115;-90
2023/03/06 13:29:41;;;;;;;0.98;0.30;;;;;;;18.32;44.20;100047.16;20348919;28;20555;-90
2023/03/06 13:39:55;;;;;;;0.68;0.22;;;;;;;18.31;44.24;100030.16;20361662;28;20055;-90
2023/03/06 13:49:57;;;;;;;0.30;0.15;;;;;;;18.30;44.21;100014.16;20369789;28;20896;-90
2023/03/06 14:00:15;;;;;;;0.22;0.20;;;;;;;18.30;44.23;99990.75;20375411;29;20051;-90
2023/03/06 14:10:22;;;;;;;0.73;0.22;;;;;;;18.30;44.13;99976.44;20388170;28;20363;-89
2023/03/06 14:20:43;;;;;;;0.43;0.20;;;;;;;18.29;43.87;99970.22;20340607;29;20512;-90
2023/03/06 14:30:52;;;;;;;0.43;0.30;;;;;;;18.29;44.10;99956.75;20351983;28;20063;-90
2023/03/06 14:40:57;;;;;;;0.57;0.30;;;;;;;18.27;43.89;99951.50;20336456;28;20134;-89
2023/03/06 14:50:59;;;;;;;0.60;0.28;;;;;;;17.95;43.74;99890.22;20377170;29;20497;-93
2023/03/06 15:01:09;;;;;;;0.55;0.40;;;;;;;18.19;43.64;99921.84;20397179;29;20114;-90
2023/03/06 15:11:10;;;;;;;0.57;0.20;;;;;;;18.13;43.62;99887.47;20370226;28;20059;-90
2023/03/06 15:21:16;;;;;;;0.60;0.30;;;;;;;18.27;43.59;99891.41;20357102;29;20071;-86
2023/03/06 15:31:26;;;;;;;0.85;0.30;;;;;;;17.83;42.98;99793.59;20349019;28;20477;-85
2023/03/06 15:41:36;;;;;;;0.88;0.30;;;;;;;18.42;42.80;99864.66;20374833;28;20138;-86
2023/03/06 15:51:38;;;;;;;2.03;0.30;;;;;;;18.44;42.52;99843.78;20415508;28;20071;-94
2023/03/06 16:01:43;;;;;;;1.08;0.32;;;;;;;18.28;41.97;99831.13;20386138;28;20051;-94
2023/03/06 16:11:46;;;;;;;0.40;0.30;;;;;;;17.80;42.00;99764.31;20399211;28;20048;-92
2023/03/06 16:22:00;;;;;;;0.40;0.20;;;;;;;17.98;42.02;99791.13;20413150;28;20056;-95
2023/03/06 16:32:02;;;;;;;0.43;0.25;;;;;;;17.69;42.14;99761.94;20433027;28;20051;-94
2023/03/06 16:42:03;;;;;;;1.17;0.22;;;;;;;16.22;42.12;99541.41;20587369;23;20408;-96
2023/03/06 16:52:07;;;;;;;0.43;0.25;;;;;;;17.77;42.46;99805.03;20464433;28;20059;-94
2023/03/06 17:02:09;;;;;;;1.17;0.40;;;;;;;17.72;42.57;99810.06;20489449;28;20051;-95
2023/03/06 17:12:11;;;;;;;0.73;0.40;;;;;;;17.63;43.23;99797.53;20478883;28;20082;-89
2023/03/06 17:22:14;;;;;;;0.40;0.30;;;;;;;17.69;43.65;99791.53;20412721;29;20044;-92
2023/03/06 17:32:16;;;;;;;0.73;0.32;;;;;;;17.66;43.88;99773.00;20354228;29;20056;-91
2023/03/06 17:42:17;;;;;;;1.33;0.50;;;;;;;17.51;44.07;99741.31;20352342;29;20063;-94
2023/03/06 17:52:19;;;;;;;0.80;0.40;;;;;;;17.59;44.20;99745.91;20351059;29;20525;-91
2023/03/06 18:02:21;;;;;;;1.15;0.40;;;;;;;17.56;44.44;99730.09;20350887;29;20125;-91
2023/03/06 18:12:22;;;;;;;0.73;0.50;;;;;;;17.55;44.49;99717.63;20379466;29;20054;-83
2023/03/06 18:22:24;;;;;;;1.00;0.60;;;;;;;17.51;44.59;99706.34;20341964;29;20056;-92
2023/03/06 18:32:26;;;;;;;0.40;0.40;;;;;;;17.49;44.53;99694.91;20392332;29;20051;-93
2023/03/06 18:42:27;;;;;;;1.30;0.60;;;;;;;17.10;44.79;99609.34;20426885;29;20059;-93
2023/03/06 18:52:29;;;;;;;0.80;0.55;;;;;;;17.40;44.68;99655.53;20441286;29;20059;-93
2023/03/06 19:02:31;;;;;;;0.75;0.52;;;;;;;17.46;44.77;99633.34;20409139;29;20063;-94
2023/03/06 19:12:34;;;;;;;1.23;0.70;;;;;;;17.45;44.82;99603.91;20408573;29;20060;-94
2023/03/06 19:22:36;;;;;;;0.50;0.50;;;;;;;17.43;44.81;99585.25;20407995;29;20075;-93
2023/03/06 19:32:37;;;;;;;0.82;0.60;;;;;;;17.42;44.91;99567.41;20410645;29;20066;-94
2023/03/06 19:42:39;;;;;;;0.60;0.60;;;;;;;17.41;44.81;99549.59;20408673;29;20497;-93
2023/03/06 19:52:41;;;;;;;1.05;0.90;;;;;;;17.18;44.88;99496.44;20413581;29;20070;-94
2023/03/06 20:02:42;;;;;;;1.10;1.00;;;;;;;17.38;44.99;99512.28;20356052;29;20492;-93
2023/03/06 20:12:44;;;;;;;1.35;0.90;;;;;;;17.21;45.00;99466.50;20427106;29;20087;-93
2023/03/06 20:22:46;;;;;;;1.30;1.20;;;;;;;17.36;45.04;99472.06;20433745;29;20048;-93
2023/03/06 20:32:47;;;;;;;1.92;1.30;;;;;;;17.36;45.04;99453.25;20419218;29;20067;-94
2023/03/06 20:42:49;;;;;;;1.30;1.20;;;;;;;17.27;45.23;99421.97;20437340;29;20044;-93
2023/03/06 20:52:55;;;;;;;1.60;1.45;;;;;;;17.34;45.32;99408.72;20364368;29;20056;-92
2023/03/06 21:02:56;;;;;;;2.45;1.77;;;;;;;17.33;45.28;99393.56;20356465;29;20465;-92
2023/03/06 21:12:58;;;;;;;2.53;2.13;;;;;;;17.32;45.43;99384.66;20419322;29;20073;-94
2023/03/06 21:23:02;;;;;;;2.20;1.88;;;;;;;17.32;45.25;99368.50;20429419;29;20064;-93
2023/03/06 21:33:04;;;;;;;2.10;1.80;;;;;;;17.15;45.28;99327.34;20428267;29;20068;-94
2023/03/06 21:43:06;;;;;;;2.20;2.00;;;;;;;17.25;45.36;99330.72;20402829;29;20052;-92
2023/03/06 21:53:09;;;;;;;2.30;2.10;;;;;;;17.20;45.27;99305.34;20389140;29;20056;-92
2023/03/06 22:03:10;;;;;;;2.42;2.03;;;;;;;17.12;45.40;99275.78;20383140;29;20126;-93
2023/03/06 22:13:12;;;;;;;2.30;2.10;;;;;;;17.14;45.47;99255.75;20424620;29;20094;-92
2023/03/06 22:23:14;;;;;;;2.22;2.00;;;;;;;17.28;45.29;99266.84;20468207;29;20066;-93
2023/03/06 22:33:15;;;;;;;2.47;2.10;;;;;;;17.13;45.41;99224.50;20412964;29;20070;-93
2023/03/06 22:43:18;;;;;;;2.55;2.03;;;;;;;17.28;45.53;99231.88;20417745;29;20449;-94
2023/03/06 22:53:20;;;;;;;1.98;1.77;;;;;;;17.28;45.51;99221.13;20384174;29;20146;-94
2023/03/06 23:03:22;;;;;;;2.03;1.80;;;;;;;17.27;45.49;99208.69;20396396;29;20056;-92
2023/03/06 23:13:24;;;;;;;2.10;1.90;;;;;;;17.26;45.53;99199.75;20450704;29;20059;-92
2023/03/06 23:23:51;;;;;;;1.63;1.52;;;;;;;17.25;45.67;99201.63;20439266;29;20139;-92
2023/03/06 23:33:56;;;;;;;1.85;1.65;;;;;;;17.27;45.56;99208.69;20432609;29;20542;-92
2023/03/06 23:43:58;;;;;;;1.80;1.60;;;;;;;17.25;45.77;99190.00;20440953;29;20056;-95
2023/03/06 23:53:59;;;;;;;1.70;1.30;;;;;;;17.25;45.92;99195.41;20408968;29;20059;-93
